Time;durP1;ratioP1;P1;durP2;ratioP2;P2;SDS_P1;SDS_P2;PMS_P1;PMS_P2;Temp;Humidity;BMP_temperature;BMP_pressure;BME280_temperature;BME280_humidity;BME280_pressure;Samples;Min_cycle;Max_cycle;Signal;HPM_P1;HPM_P2
2022/12/26 00:04:07;;;;;;;;;;;18.20;57.80;;;;;;10207976;28;780;-74
2022/12/26 00:09:03;;;;;;;;;;;18.20;57.80;;;;;;10207757;28;774;-78
2022/12/26 00:13:58;;;;;;;;;;;18.20;58.10;;;;;;10208225;28;937;-74
2022/12/26 00:18:53;;;;;;;;;;;18.20;58.00;;;;;;10206707;28;1949;-74
2022/12/26 00:23:49;;;;;;;;;;;18.20;57.90;;;;;;10207944;28;836;-77
2022/12/26 00:28:44;;;;;;;;;;;18.10;58.50;;;;;;10207009;28;871;-75
2022/12/26 00:33:39;;;;;;;;;;;18.10;57.90;;;;;;10206832;28;1216;-74
2022/12/26 00:38:35;;;;;;;;;;;18.10;57.90;;;;;;10207078;28;2027;-74
2022/12/26 00:43:30;;;;;;;;;;;18.10;57.90;;;;;;10206025;28;829;-74
2022/12/26 00:48:26;;;;;;;;;;;18.10;57.80;;;;;;10206857;28;806;-75
2022/12/26 00:53:21;;;;;;;;;;;18.10;57.70;;;;;;10206631;28;855;-74
2022/12/26 00:58:16;;;;;;;;;;;18.20;57.80;;;;;;10205840;28;1957;-74
2022/12/26 01:03:12;;;;;;;;;;;18.10;57.70;;;;;;10205605;28;801;-74
2022/12/26 01:08:07;;;;;;;;;;;18.10;57.70;;;;;;10205908;28;844;-74
2022/12/26 01:13:02;;;;;;;;;;;18.10;57.60;;;;;;10204821;28;901;-74
2022/12/26 01:17:58;;;;;;;;;;;18.10;57.70;;;;;;10205232;28;1910;-74
2022/12/26 01:22:54;;;;;;;;;;;18.10;57.70;;;;;;10205138;28;808;-74
2022/12/26 01:27:50;;;;;;;;;;;18.10;57.70;;;;;;10205212;28;925;-74
2022/12/26 01:32:45;;;;;;;;;;;18.10;57.60;;;;;;10204648;28;1118;-74
2022/12/26 01:37:41;;;;;;;;;;;18.10;57.50;;;;;;10205212;28;1975;-74
2022/12/26 01:42:36;;;;;;;;;;;18.10;57.50;;;;;;10204462;28;872;-74
2022/12/26 01:47:32;;;;;;;;;;;18.10;57.50;;;;;;10204345;28;875;-74
2022/12/26 01:52:27;;;;;;;;;;;18.10;57.50;;;;;;10204815;28;842;-75
2022/12/26 01:57:22;;;;;;;;;;;18.10;57.60;;;;;;10203947;28;1963;-74
2022/12/26 02:02:18;;;;;;;;;;;18.10;57.60;;;;;;10204557;28;1020;-74
2022/12/26 02:07:13;;;;;;;;;;;18.10;57.50;;;;;;10203908;28;795;-74
2022/12/26 02:12:09;;;;;;;;;;;18.10;57.40;;;;;;10204421;28;911;-74
2022/12/26 02:17:19;;;;;;;;;;;18.10;57.40;;;;;;10203632;28;1902;-74
2022/12/26 02:22:15;;;;;;;;;;;18.10;57.40;;;;;;10203667;28;825;-74
2022/12/26 02:27:12;;;;;;;;;;;18.10;57.50;;;;;;10203530;28;818;-74
2022/12/26 02:32:08;;;;;;;;;;;18.10;57.50;;;;;;10204009;28;861;-74
2022/12/26 02:37:04;;;;;;;;;;;18.10;57.50;;;;;;10204434;28;1914;-74
2022/12/26 02:41:59;;;;;;;;;;;18.10;57.50;;;;;;10203264;28;896;-74
2022/12/26 02:47:03;;;;;;;;;;;18.10;57.50;;;;;;10203883;28;806;-74
2022/12/26 03:13:10;;;;;;;;;;;18.10;57.40;;;;;;10209451;28;652;-74
2022/12/26 03:18:06;;;;;;;;;;;18.10;57.40;;;;;;10209959;28;1965;-74
2022/12/26 03:23:01;;;;;;;;;;;18.10;57.40;;;;;;10209513;28;903;-74
2022/12/26 03:27:57;;;;;;;;;;;18.10;57.40;;;;;;10210003;28;818;-74
2022/12/26 03:32:52;;;;;;;;;;;18.10;57.30;;;;;;10210161;28;1274;-74
2022/12/26 03:37:47;;;;;;;;;;;18.10;57.40;;;;;;10209564;28;1910;-74
2022/12/26 04:19:36;;;;;;;;;;;18.00;57.20;;;;;;10173445;28;1938;-74
2022/12/26 04:45:28;;;;;;;;;;;18.00;57.20;;;;;;10205996;28;660;-74
2022/12/26 04:50:23;;;;;;;;;;;18.00;57.30;;;;;;10206255;28;805;-74
2022/12/26 04:55:19;;;;;;;;;;;18.00;57.10;;;;;;10206050;28;1959;-74
2022/12/26 05:00:14;;;;;;;;;;;18.00;57.20;;;;;;10206535;28;780;-74
2022/12/26 05:10:23;;;;;;;;;;;18.10;57.20;;;;;;10205690;28;601;-74
2022/12/26 05:15:19;;;;;;;;;;;18.10;57.10;;;;;;10205872;28;1910;-74
2022/12/26 05:30:43;;;;;;;;;;;18.10;56.90;;;;;;10175930;28;1479;-74
2022/12/26 05:35:39;;;;;;;;;;;18.10;56.90;;;;;;10204506;28;1919;-74
2022/12/26 05:40:34;;;;;;;;;;;18.10;56.80;;;;;;10204608;28;838;-74
2022/12/26 05:45:29;;;;;;;;;;;18.20;56.90;;;;;;10203880;28;932;-74
2022/12/26 05:50:25;;;;;;;;;;;18.20;56.80;;;;;;10204922;28;772;-74
2022/12/26 05:55:21;;;;;;;;;;;18.10;56.70;;;;;;10204171;28;1950;-74
2022/12/26 06:00:16;;;;;;;;;;;18.20;56.70;;;;;;10203489;28;855;-74
2022/12/26 06:05:11;;;;;;;;;;;18.20;56.70;;;;;;10204017;28;878;-75
2022/12/26 06:10:07;;;;;;;;;;;18.20;56.60;;;;;;10204810;28;873;-74
2022/12/26 06:15:02;;;;;;;;;;;18.20;56.60;;;;;;10203908;28;850;-74
2022/12/26 06:19:57;;;;;;;;;;;18.20;56.60;;;;;;10204132;28;1884;-74
2022/12/26 06:24:53;;;;;;;;;;;18.20;56.60;;;;;;10204329;28;802;-74
2022/12/26 06:29:48;;;;;;;;;;;18.10;56.50;;;;;;10204081;28;876;-74
2022/12/26 06:34:43;;;;;;;;;;;18.20;56.60;;;;;;10203389;28;1245;-74
2022/12/26 06:39:39;;;;;;;;;;;18.20;56.50;;;;;;10203967;28;1979;-74
2022/12/26 06:44:34;;;;;;;;;;;18.20;56.50;;;;;;10210543;28;972;-74
2022/12/26 06:49:30;;;;;;;;;;;18.20;56.50;;;;;;10211435;28;779;-75
2022/12/26 06:54:25;;;;;;;;;;;18.20;56.50;;;;;;10210698;28;778;-74
2022/12/26 06:59:20;;;;;;;;;;;18.20;56.40;;;;;;10211159;28;1963;-74
2022/12/26 07:04:16;;;;;;;;;;;18.20;56.40;;;;;;10210383;28;880;-77
2022/12/26 07:09:13;;;;;;;;;;;18.20;56.40;;;;;;10211362;28;850;-76
2022/12/26 07:14:08;;;;;;;;;;;18.20;56.40;;;;;;10242282;28;1008;-76
2022/12/26 07:19:03;;;;;;;;;;;18.20;56.40;;;;;;10249365;28;1906;-76
2022/12/26 07:23:59;;;;;;;;;;;18.10;56.40;;;;;;10250529;28;858;-75
2022/12/26 07:28:54;;;;;;;;;;;18.20;56.50;;;;;;10249645;28;758;-76
2022/12/26 07:33:50;;;;;;;;;;;18.10;56.40;;;;;;10249613;28;1437;-76
2022/12/26 07:38:45;;;;;;;;;;;18.10;56.30;;;;;;10248641;28;1910;-75
2022/12/26 07:43:40;;;;;;;;;;;18.20;56.40;;;;;;10249034;28;884;-76
2022/12/26 07:48:36;;;;;;;;;;;18.20;56.30;;;;;;10249563;28;802;-76
2022/12/26 07:53:31;;;;;;;;;;;18.20;56.30;;;;;;10247688;28;824;-75
2022/12/26 07:58:27;;;;;;;;;;;18.20;56.30;;;;;;10249141;28;1960;-75
2022/12/26 08:03:22;;;;;;;;;;;18.20;56.30;;;;;;10248603;28;911;-75
2022/12/26 08:08:17;;;;;;;;;;;18.20;56.30;;;;;;10247717;28;944;-76
2022/12/26 08:13:13;;;;;;;;;;;18.20;56.20;;;;;;10247053;28;825;-75
2022/12/26 08:18:08;;;;;;;;;;;18.20;56.20;;;;;;10247469;28;1961;-75
2022/12/26 08:23:03;;;;;;;;;;;18.20;56.20;;;;;;10245714;28;1135;-76
2022/12/26 08:27:59;;;;;;;;;;;18.20;56.20;;;;;;10247903;28;819;-75
2022/12/26 08:32:54;;;;;;;;;;;18.20;56.20;;;;;;10246687;28;1374;-75
2022/12/26 08:37:49;;;;;;;;;;;18.20;56.10;;;;;;10247030;28;1907;-75
2022/12/26 08:42:45;;;;;;;;;;;18.20;56.10;;;;;;10246545;28;928;-75
2022/12/26 08:47:40;;;;;;;;;;;18.20;56.00;;;;;;10246768;28;762;-75
2022/12/26 08:52:36;;;;;;;;;;;18.20;56.10;;;;;;10247066;28;865;-75
2022/12/26 08:57:31;;;;;;;;;;;18.30;56.10;;;;;;10246664;28;1903;-75
2022/12/26 09:02:26;;;;;;;;;;;18.20;56.00;;;;;;10246072;28;878;-69
2022/12/26 09:07:23;;;;;;;;;;;18.20;56.00;;;;;;10246221;28;829;-74
2022/12/26 09:12:20;;;;;;;;;;;18.30;56.20;;;;;;10245889;28;1665;-74
2022/12/26 09:17:15;;;;;;;;;;;18.20;56.20;;;;;;10245408;28;1890;-72
2022/12/26 09:27:25;;;;;;;;;;;18.30;56.50;;;;;;10244984;28;686;-71
2022/12/26 09:32:20;;;;;;;;;;;18.50;57.10;;;;;;10244696;28;1382;-71
2022/12/26 09:37:15;;;;;;;;;;;18.50;57.30;;;;;;10244926;28;1972;-70
2022/12/26 09:42:11;;;;;;;;;;;18.50;57.70;;;;;;10245526;28;1193;-70
2022/12/26 09:47:06;;;;;;;;;;;18.60;57.50;;;;;;10244935;28;845;-69
2022/12/26 09:52:02;;;;;;;;;;;18.50;57.40;;;;;;10244352;28;1157;-69
2022/12/26 09:56:57;;;;;;;;;;;18.60;57.50;;;;;;10243975;28;1898;-71
2022/12/26 10:01:52;;;;;;;;;;;18.70;57.50;;;;;;10243627;28;869;-71
2022/12/26 10:06:48;;;;;;;;;;;18.60;57.60;;;;;;10244649;28;872;-67
2022/12/26 10:11:43;;;;;;;;;;;18.60;57.50;;;;;;10243386;28;930;-70
2022/12/26 10:16:38;;;;;;;;;;;18.70;57.50;;;;;;10246150;28;1898;-70
2022/12/26 10:21:34;;;;;;;;;;;18.70;57.60;;;;;;10252830;28;834;-70
2022/12/26 10:26:30;;;;;;;;;;;18.70;57.70;;;;;;10252817;28;894;-68
2022/12/26 10:31:25;;;;;;;;;;;18.60;57.50;;;;;;10252032;28;956;-69
2022/12/26 10:36:20;;;;;;;;;;;18.70;57.50;;;;;;10252810;28;1902;-71
2022/12/26 10:41:16;;;;;;;;;;;18.70;57.30;;;;;;10251530;28;871;-69
2022/12/26 10:46:11;;;;;;;;;;;18.70;57.10;;;;;;10251235;28;858;-70
2022/12/26 10:51:07;;;;;;;;;;;18.70;57.50;;;;;;10249497;28;1075;-71
2022/12/26 10:56:02;;;;;;;;;;;18.70;57.50;;;;;;10249669;28;1902;-71
2022/12/26 11:00:57;;;;;;;;;;;18.70;57.50;;;;;;10247670;28;932;-71
2022/12/26 11:05:53;;;;;;;;;;;18.70;57.30;;;;;;10250528;28;1086;-70
2022/12/26 11:10:50;;;;;;;;;;;18.70;57.30;;;;;;10250192;28;814;-72
2022/12/26 11:15:45;;;;;;;;;;;18.70;57.50;;;;;;10250045;28;1902;-76
2022/12/26 11:20:41;;;;;;;;;;;18.60;57.60;;;;;;10250025;28;1078;-79
2022/12/26 11:25:37;;;;;;;;;;;18.50;56.80;;;;;;10250999;28;782;-78
2022/12/26 11:30:33;;;;;;;;;;;18.40;57.30;;;;;;10249630;28;902;-77
2022/12/26 11:35:33;;;;;;;;;;;18.40;57.00;;;;;;10250033;28;1975;-69
2022/12/26 11:40:29;;;;;;;;;;;18.40;57.10;;;;;;10250304;28;900;-70
2022/12/26 11:45:24;;;;;;;;;;;18.60;57.00;;;;;;10249935;28;918;-70
2022/12/26 11:50:20;;;;;;;;;;;18.60;57.10;;;;;;10249547;28;869;-70
2022/12/26 11:55:15;;;;;;;;;;;18.70;57.40;;;;;;10248789;28;863;-69
2022/12/26 12:00:11;;;;;;;;;;;18.70;57.30;;;;;;10249114;28;1969;-68
2022/12/26 12:05:06;;;;;;;;;;;18.70;56.70;;;;;;10249172;28;794;-68
2022/12/26 12:10:01;;;;;;;;;;;18.60;56.60;;;;;;10248801;28;766;-67
2022/12/26 12:14:57;;;;;;;;;;;18.70;56.80;;;;;;10248599;28;884;-68
2022/12/26 12:19:52;;;;;;;;;;;18.60;56.30;;;;;;10247705;28;1902;-68
2022/12/26 12:24:48;;;;;;;;;;;18.60;56.30;;;;;;10247021;28;1055;-77
2022/12/26 12:29:43;;;;;;;;;;;18.50;56.40;;;;;;10248042;28;870;-77
2022/12/26 12:34:38;;;;;;;;;;;18.40;56.90;;;;;;10246562;28;1373;-76
2022/12/26 12:39:34;;;;;;;;;;;18.30;56.20;;;;;;10246463;28;1914;-71
2022/12/26 12:44:29;;;;;;;;;;;18.30;55.80;;;;;;10246660;28;831;-70
2022/12/26 12:54:31;;;;;;;;;;;18.50;55.80;;;;;;10247297;28;885;-69
2022/12/26 12:59:26;;;;;;;;;;;18.50;55.70;;;;;;10246208;28;1994;-69
2022/12/26 13:04:21;;;;;;;;;;;18.50;55.30;;;;;;10245527;28;785;-69
2022/12/26 13:09:17;;;;;;;;;;;18.50;55.00;;;;;;10245920;28;838;-69
2022/12/26 13:14:12;;;;;;;;;;;18.50;55.30;;;;;;10245752;28;885;-68
2022/12/26 13:19:07;;;;;;;;;;;18.50;55.30;;;;;;10244939;28;1910;-69
2022/12/26 13:29:17;;;;;;;;;;;18.50;55.70;;;;;;10244894;28;608;-69
2022/12/26 13:34:12;;;;;;;;;;;18.60;55.70;;;;;;10244881;28;1311;-69
2022/12/26 13:39:08;;;;;;;;;;;18.60;55.80;;;;;;10244861;28;1914;-69
2022/12/26 13:44:03;;;;;;;;;;;18.60;56.00;;;;;;10244719;28;966;-69
2022/12/26 13:48:59;;;;;;;;;;;18.60;56.30;;;;;;10244608;28;849;-69
2022/12/26 13:53:54;;;;;;;;;;;18.60;56.50;;;;;;10243658;28;856;-70
2022/12/26 13:58:49;;;;;;;;;;;18.60;57.00;;;;;;10244114;28;1973;-69
2022/12/26 14:03:45;;;;;;;;;;;18.60;57.20;;;;;;10244358;28;1041;-69
2022/12/26 14:08:40;;;;;;;;;;;18.60;57.40;;;;;;10244925;28;762;-69
2022/12/26 14:13:35;;;;;;;;;;;18.60;57.50;;;;;;10245370;28;861;-68
2022/12/26 14:18:31;;;;;;;;;;;18.60;57.60;;;;;;10244388;28;1972;-69
2022/12/26 14:23:26;;;;;;;;;;;18.60;57.40;;;;;;10243775;28;863;-70
2022/12/26 14:28:22;;;;;;;;;;;18.60;57.60;;;;;;10243726;28;1055;-70
2022/12/26 14:33:17;;;;;;;;;;;18.60;57.60;;;;;;10243911;28;1434;-69
2022/12/26 14:38:12;;;;;;;;;;;18.60;57.50;;;;;;10244041;28;1917;-70
2022/12/26 14:43:11;;;;;;;;;;;18.70;57.60;;;;;;10244678;28;851;-70
2022/12/26 14:48:06;;;;;;;;;;;18.70;57.60;;;;;;10244156;28;871;-69
2022/12/26 14:53:02;;;;;;;;;;;18.70;57.40;;;;;;10243270;28;968;-69
2022/12/26 14:57:57;;;;;;;;;;;18.70;57.40;;;;;;10243296;28;1914;-71
2022/12/26 15:02:53;;;;;;;;;;;18.70;57.30;;;;;;10246091;28;768;-69
2022/12/26 15:07:48;;;;;;;;;;;18.70;57.30;;;;;;10250599;28;822;-70
2022/12/26 15:12:43;;;;;;;;;;;18.70;57.30;;;;;;10250459;28;835;-70
2022/12/26 15:17:39;;;;;;;;;;;18.70;57.00;;;;;;10250436;28;1969;-68
2022/12/26 15:22:34;;;;;;;;;;;18.80;56.70;;;;;;10249493;28;920;-68
2022/12/26 15:27:29;;;;;;;;;;;18.70;56.40;;;;;;10249872;28;794;-68
2022/12/26 15:32:25;;;;;;;;;;;18.60;56.20;;;;;;10249437;28;1005;-70
2022/12/26 15:37:20;;;;;;;;;;;18.60;56.80;;;;;;10250345;28;1914;-69
2022/12/26 15:42:18;;;;;;;;;;;18.70;56.90;;;;;;10249275;28;955;-70
2022/12/26 15:47:13;;;;;;;;;;;18.70;56.80;;;;;;10249194;28;873;-70
2022/12/26 15:52:08;;;;;;;;;;;18.70;56.80;;;;;;10248368;28;917;-69
2022/12/26 15:57:04;;;;;;;;;;;18.70;56.60;;;;;;10249324;28;1910;-71
2022/12/26 16:01:59;;;;;;;;;;;18.80;56.60;;;;;;10249168;28;861;-74
2022/12/26 16:06:55;;;;;;;;;;;18.70;56.80;;;;;;10249383;28;803;-74
2022/12/26 16:11:50;;;;;;;;;;;18.70;56.70;;;;;;10248213;28;1589;-69
2022/12/26 16:16:45;;;;;;;;;;;18.70;56.10;;;;;;10247660;28;1910;-69
2022/12/26 16:26:55;;;;;;;;;;;18.70;55.60;;;;;;10247714;28;620;-69
2022/12/26 16:31:50;;;;;;;;;;;18.70;55.70;;;;;;10248555;28;910;-69
2022/12/26 16:36:46;;;;;;;;;;;18.70;55.80;;;;;;10246891;28;1985;-69
2022/12/26 16:41:41;;;;;;;;;;;18.70;55.80;;;;;;10247623;28;834;-69
2022/12/26 16:46:36;;;;;;;;;;;18.70;56.00;;;;;;10247381;28;821;-69
2022/12/26 16:51:32;;;;;;;;;;;18.70;55.90;;;;;;10247254;28;841;-69
2022/12/26 16:56:27;;;;;;;;;;;18.70;56.50;;;;;;10246856;28;1972;-69
2022/12/26 17:01:22;;;;;;;;;;;18.70;56.30;;;;;;10246301;28;810;-69
2022/12/26 17:06:18;;;;;;;;;;;18.80;56.00;;;;;;10246860;28;1088;-69
2022/12/26 17:11:13;;;;;;;;;;;18.70;56.00;;;;;;10247153;28;825;-69
2022/12/26 17:16:12;;;;;;;;;;;18.70;55.90;;;;;;10246253;28;1906;-69
2022/12/26 17:21:07;;;;;;;;;;;18.70;56.00;;;;;;10246445;28;869;-70
2022/12/26 17:26:03;;;;;;;;;;;18.70;55.80;;;;;;10246444;28;849;-69
2022/12/26 17:30:58;;;;;;;;;;;18.80;56.40;;;;;;10245219;28;762;-70
2022/12/26 17:35:54;;;;;;;;;;;18.80;56.60;;;;;;10245064;28;1914;-69
2022/12/26 17:40:49;;;;;;;;;;;18.80;56.80;;;;;;10244299;28;861;-69
2022/12/26 17:45:44;;;;;;;;;;;18.80;56.90;;;;;;10245313;28;790;-70
2022/12/26 17:50:40;;;;;;;;;;;18.80;57.00;;;;;;10245156;28;901;-70
2022/12/26 17:55:35;;;;;;;;;;;18.80;57.10;;;;;;10244121;28;1906;-69
2022/12/26 18:00:30;;;;;;;;;;;18.80;57.20;;;;;;10244321;28;817;-70
2022/12/26 18:05:26;;;;;;;;;;;18.80;57.30;;;;;;10244998;28;857;-69
2022/12/26 18:10:21;;;;;;;;;;;18.90;57.30;;;;;;10243521;28;889;-70
2022/12/26 18:15:16;;;;;;;;;;;18.80;57.00;;;;;;10244007;28;869;-70
2022/12/26 18:20:12;;;;;;;;;;;18.80;57.30;;;;;;10243760;28;1894;-70
2022/12/26 18:25:07;;;;;;;;;;;18.80;56.90;;;;;;10243240;28;834;-70
2022/12/26 18:30:03;;;;;;;;;;;18.90;57.20;;;;;;10243732;28;810;-70
2022/12/26 18:34:58;;;;;;;;;;;18.90;57.10;;;;;;10243338;28;1240;-70
2022/12/26 18:39:53;;;;;;;;;;;18.80;57.10;;;;;;10250216;28;1906;-70
2022/12/26 18:44:49;;;;;;;;;;;18.90;57.00;;;;;;10251660;28;839;-68
2022/12/26 18:49:44;;;;;;;;;;;18.90;56.80;;;;;;10251294;28;839;-70
2022/12/26 18:54:40;;;;;;;;;;;18.90;56.70;;;;;;10251253;28;905;-70
2022/12/26 18:59:35;;;;;;;;;;;18.90;56.60;;;;;;10251990;28;1890;-70
2022/12/26 19:04:30;;;;;;;;;;;18.90;56.60;;;;;;10251361;28;795;-70
2022/12/26 19:09:26;;;;;;;;;;;18.90;56.60;;;;;;10250626;28;950;-70
2022/12/26 19:14:21;;;;;;;;;;;18.90;56.40;;;;;;10251115;28;904;-70
2022/12/26 19:19:16;;;;;;;;;;;18.90;56.40;;;;;;10250178;28;1902;-70
2022/12/26 19:24:12;;;;;;;;;;;18.90;56.30;;;;;;10250735;28;853;-70
2022/12/26 19:29:07;;;;;;;;;;;18.90;56.20;;;;;;10249886;28;830;-70
2022/12/26 19:34:02;;;;;;;;;;;18.90;56.00;;;;;;10250090;28;1428;-70
2022/12/26 19:38:58;;;;;;;;;;;18.90;56.10;;;;;;10249442;28;1907;-70
2022/12/26 19:43:53;;;;;;;;;;;18.90;56.20;;;;;;10249248;28;887;-70
2022/12/26 19:48:49;;;;;;;;;;;18.90;56.10;;;;;;10247770;28;787;-70
2022/12/26 19:53:44;;;;;;;;;;;18.80;56.00;;;;;;10248946;28;949;-70
2022/12/26 19:58:39;;;;;;;;;;;18.80;55.90;;;;;;10248058;28;1963;-70
2022/12/26 20:03:35;;;;;;;;;;;18.80;56.50;;;;;;10249209;28;1011;-70
2022/12/26 20:08:30;;;;;;;;;;;18.80;55.80;;;;;;10248407;28;772;-70
2022/12/26 20:13:25;;;;;;;;;;;18.90;55.60;;;;;;10248230;28;866;-70
2022/12/26 20:18:21;;;;;;;;;;;18.80;55.60;;;;;;10247911;28;1898;-70
2022/12/26 20:23:16;;;;;;;;;;;18.80;55.70;;;;;;10247856;28;799;-70
2022/12/26 20:28:11;;;;;;;;;;;18.80;55.60;;;;;;10247043;28;882;-70
2022/12/26 20:33:07;;;;;;;;;;;18.80;55.80;;;;;;10248347;28;1169;-70
2022/12/26 20:38:02;;;;;;;;;;;18.80;55.40;;;;;;10247181;28;1973;-70
2022/12/26 20:42:57;;;;;;;;;;;18.80;55.10;;;;;;10247062;28;851;-70
2022/12/26 20:47:53;;;;;;;;;;;18.80;55.10;;;;;;10247061;28;823;-70
2022/12/26 20:52:48;;;;;;;;;;;18.70;54.60;;;;;;10246805;28;956;-70
2022/12/26 20:57:44;;;;;;;;;;;18.70;54.80;;;;;;10246406;28;1954;-70
2022/12/26 21:02:39;;;;;;;;;;;18.70;54.50;;;;;;10245937;28;929;-70
2022/12/26 21:07:34;;;;;;;;;;;18.70;54.40;;;;;;10246070;28;847;-70
2022/12/26 21:12:30;;;;;;;;;;;18.60;54.30;;;;;;10246763;28;822;-70
2022/12/26 21:17:25;;;;;;;;;;;18.60;53.90;;;;;;10246746;28;1906;-70
2022/12/26 21:22:22;;;;;;;;;;;18.60;53.90;;;;;;10246318;28;888;-70
2022/12/26 21:27:17;;;;;;;;;;;18.60;53.70;;;;;;10245370;28;859;-70
2022/12/26 21:32:13;;;;;;;;;;;18.50;53.60;;;;;;10245463;28;1455;-70
2022/12/26 21:42:22;;;;;;;;;;;18.50;53.80;;;;;;10244559;28;600;-70
2022/12/26 21:47:18;;;;;;;;;;;18.50;53.90;;;;;;10244144;28;928;-70
2022/12/26 21:52:14;;;;;;;;;;;18.50;53.40;;;;;;10245140;28;1120;-70
2022/12/26 21:57:09;;;;;;;;;;;18.50;53.20;;;;;;10244500;28;1993;-70
2022/12/26 22:04:17;;;;;;;;;;;18.40;52.80;;;;;;10244356;28;787;-70
2022/12/26 22:07:20;;;;;;;;;;;18.40;53.30;;;;;;10243488;28;1492;-70
2022/12/26 22:17:29;;;;;;;;;;;18.40;53.40;;;;;;10244386;28;1910;-70
2022/12/26 22:22:25;;;;;;;;;;;18.40;53.20;;;;;;10243932;28;811;-70
2022/12/26 22:27:20;;;;;;;;;;;18.40;53.20;;;;;;10243829;28;807;-70
2022/12/26 22:32:15;;;;;;;;;;;18.40;52.80;;;;;;10242906;28;1090;-69
2022/12/26 22:37:11;;;;;;;;;;;18.40;53.00;;;;;;10244222;28;1914;-69
2022/12/26 22:42:06;;;;;;;;;;;18.30;53.30;;;;;;10243621;28;768;-69
2022/12/26 22:47:02;;;;;;;;;;;18.30;53.40;;;;;;10244042;28;1089;-69
2022/12/26 22:51:58;;;;;;;;;;;18.30;53.40;;;;;;10243337;28;959;-69
2022/12/26 22:56:53;;;;;;;;;;;18.30;52.90;;;;;;10242748;28;1957;-69
2022/12/26 23:01:49;;;;;;;;;;;18.30;52.60;;;;;;10243781;28;901;-69
2022/12/26 23:06:44;;;;;;;;;;;18.20;53.10;;;;;;10244181;28;1072;-69
2022/12/26 23:11:39;;;;;;;;;;;18.20;53.10;;;;;;10243052;28;807;-69
2022/12/26 23:16:35;;;;;;;;;;;18.20;52.70;;;;;;10243653;28;1902;-69
2022/12/26 23:21:42;;;;;;;;;;;18.20;52.80;;;;;;10242776;28;886;-69
2022/12/26 23:26:38;;;;;;;;;;;18.20;52.80;;;;;;10249658;28;1264;-69
2022/12/26 23:31:33;;;;;;;;;;;18.20;53.00;;;;;;10250435;28;889;-69
2022/12/26 23:36:29;;;;;;;;;;;18.20;52.80;;;;;;10249515;28;1914;-69
2022/12/26 23:41:24;;;;;;;;;;;18.20;52.90;;;;;;10250107;28;826;-69
2022/12/26 23:46:19;;;;;;;;;;;18.20;52.70;;;;;;10249873;28;887;-69
2022/12/26 23:51:15;;;;;;;;;;;18.20;52.70;;;;;;10249116;28;979;-69
2022/12/26 23:56:10;;;;;;;;;;;18.20;52.40;;;;;;10248866;28;1985;-69
